Time;durP1;ratioP1;P1;durP2;ratioP2;P2;SDS_P1;SDS_P2;PMS_P1;PMS_P2;Temp;Humidity;BMP_temperature;BMP_pressure;BME280_temperature;BME280_humidity;BME280_pressure;Samples;Min_cycle;Max_cycle;Signal;HPM_P1;HPM_P2
2021/09/14 00:02:57;;;;;;;9.73;1.70;;;;;;;11.20;86.17;101812.31;6287601;28;20253;-72
2021/09/14 00:06:01;;;;;;;11.25;1.90;;;;;;;11.16;86.26;101802.84;6288300;28;20191;-72
2021/09/14 00:09:07;;;;;;;5.13;1.83;;;;;;;11.15;86.58;101802.00;6287195;28;20206;-71
2021/09/14 00:12:14;;;;;;;2.25;1.60;;;;;;;11.12;86.37;101807.84;6288081;28;20216;-71
2021/09/14 00:15:18;;;;;;;2.92;1.50;;;;;;;11.01;87.36;101813.84;6288062;28;20191;-71
2021/09/14 00:18:22;;;;;;;1.55;1.35;;;;;;;11.06;87.30;101808.66;6286931;28;20591;-71
2021/09/14 00:21:26;;;;;;;11.55;2.03;;;;;;;11.17;86.06;101804.53;6287986;28;20184;-71
2021/09/14 00:24:31;;;;;;;11.63;2.63;;;;;;;11.14;85.20;101811.25;6286881;28;20219;-71
2021/09/14 00:27:36;;;;;;;13.52;2.35;;;;;;;11.06;85.92;101811.38;6286994;28;20269;-72
2021/09/14 00:30:41;;;;;;;16.15;2.20;;;;;;;11.04;86.85;101810.72;6269209;28;20254;-72
2021/09/14 00:33:45;;;;;;;6.72;1.70;;;;;;;11.11;87.02;101805.31;6288005;28;20211;-72
2021/09/14 00:36:49;;;;;;;6.80;1.70;;;;;;;11.20;86.52;101804.97;6286745;28;20444;-72
2021/09/14 00:39:53;;;;;;;7.10;2.30;;;;;;;11.02;87.33;101796.41;6287637;28;20294;-72
2021/09/14 00:42:59;;;;;;;13.77;2.20;;;;;;;11.15;87.83;101802.00;6286484;28;20195;-72
2021/09/14 00:46:04;;;;;;;16.42;2.13;;;;;;;11.12;87.45;101810.56;6286447;28;20185;-72
2021/09/14 00:49:08;;;;;;;13.25;2.03;;;;;;;10.98;89.03;101811.50;6269744;28;20200;-72
2021/09/14 00:52:13;;;;;;;11.65;2.55;;;;;;;11.09;88.80;101819.16;6286394;28;20472;-72
2021/09/14 00:55:17;;;;;;;11.68;2.00;;;;;;;11.04;91.42;101812.63;6269161;28;20322;-72
2021/09/14 00:58:23;;;;;;;10.40;2.20;;;;;;;11.13;91.08;101809.53;6269745;28;20199;-72
2021/09/14 01:01:37;;;;;;;5.00;1.80;;;;;;;11.19;90.67;101825.16;6286741;28;20531;-72
2021/09/14 01:04:41;;;;;;;5.70;2.00;;;;;;;11.25;90.46;101813.41;6187561;28;20544;-71
2021/09/14 01:07:47;;;;;;;5.55;1.88;;;;;;;11.25;90.89;101802.50;6189891;28;20187;-73
2021/09/14 01:10:52;;;;;;;6.75;1.70;;;;;;;11.35;89.90;101817.72;6188593;28;20373;-72
2021/09/14 01:14:10;;;;;;;2.58;1.60;;;;;;;11.25;91.30;101805.22;6189286;28;20214;-72
2021/09/14 01:17:15;;;;;;;5.68;1.88;;;;;;;11.31;91.10;101807.19;6171366;28;20277;-72
2021/09/14 01:20:19;;;;;;;25.08;2.50;;;;;;;11.36;90.89;101808.44;6172286;28;20218;-72
2021/09/14 01:23:25;;;;;;;29.10;2.70;;;;;;;11.33;91.07;101805.06;6171500;28;20373;-72
2021/09/14 01:26:34;;;;;;;4.28;1.77;;;;;;;11.36;91.58;101802.97;6172344;28;20265;-72
2021/09/14 01:33:07;;;;;;;7.75;1.60;;;;;;;11.38;93.06;101811.81;6171897;28;20230;-73
2021/09/14 01:36:14;;;;;;;8.27;1.83;;;;;;;11.35;92.64;101817.72;6187855;28;20245;-73
2021/09/14 01:39:21;;;;;;;7.13;1.73;;;;;;;11.26;93.68;101803.34;6171377;28;20440;-72
2021/09/14 01:42:26;;;;;;;1.48;1.30;;;;;;;11.32;92.04;101814.31;6171559;28;20498;-72
2021/09/14 01:45:31;;;;;;;1.65;1.55;;;;;;;11.48;90.64;101812.34;6171057;28;20435;-72
2021/09/14 01:48:37;;;;;;;5.65;1.83;;;;;;;11.37;89.46;101812.88;6171387;28;20225;-72
2021/09/14 01:51:41;;;;;;;7.68;1.60;;;;;;;11.36;90.42;101812.03;6189274;28;20190;-72
2021/09/14 01:54:49;;;;;;;17.70;1.42;;;;;;;11.39;87.98;101819.00;6175906;28;20435;-72
2021/09/14 01:57:55;;;;;;;2.35;1.42;;;;;;;11.39;85.22;101814.38;6175796;28;20206;-72
2021/09/14 02:01:05;;;;;;;1.45;1.35;;;;;;;11.39;83.67;101808.06;6176026;28;20486;-72
2021/09/14 02:04:14;;;;;;;1.13;1.13;;;;;;;11.37;75.57;101815.63;6154743;28;20432;-72
2021/09/14 02:24:27;;;;;;;1.55;1.30;;;;;;;11.35;74.67;101824.00;6152105;29;20215;-73
2021/09/14 02:41:19;;;;;;;3.40;1.23;;;;;;;11.27;74.16;101827.72;6150664;29;20203;-73
2021/09/14 02:44:46;;;;;;;5.88;1.38;;;;;;;11.32;73.92;101847.09;6150534;29;20215;-73
2021/09/14 03:01:22;;;;;;;1.30;1.20;;;;;;;11.20;73.12;101862.34;6150893;28;20389;-73
2021/09/14 03:04:28;;;;;;;3.33;1.40;;;;;;;11.26;71.59;101858.84;6167701;28;20243;-73
2021/09/14 03:07:33;;;;;;;1.98;1.45;;;;;;;11.22;72.14;101857.50;6150642;29;20388;-72
2021/09/14 03:10:38;;;;;;;1.30;1.30;;;;;;;11.22;73.41;101854.78;6150032;29;20227;-72
2021/09/14 03:13:45;;;;;;;1.40;1.20;;;;;;;11.08;71.11;101863.91;6150517;29;20187;-73
2021/09/14 03:16:53;;;;;;;2.30;1.33;;;;;;;11.12;70.91;101857.00;6150033;29;20311;-73
2021/09/14 03:19:57;;;;;;;1.30;1.30;;;;;;;11.17;72.14;101854.53;6149810;29;20207;-72
2021/09/14 03:23:02;;;;;;;2.63;1.30;;;;;;;11.15;70.67;101851.16;6150059;29;20211;-72
2021/09/14 03:26:07;;;;;;;1.10;1.10;;;;;;;11.09;72.19;101868.31;6149702;29;20211;-72
2021/09/14 03:29:12;;;;;;;1.08;1.08;;;;;;;11.14;70.84;101871.34;6150047;29;20204;-72
2021/09/14 03:32:21;;;;;;;1.92;1.25;;;;;;;11.19;70.53;101857.94;6149637;29;20472;-72
2021/09/14 03:35:26;;;;;;;2.15;1.20;;;;;;;11.16;72.50;101857.47;6167204;29;20223;-73
2021/09/14 03:38:30;;;;;;;1.10;1.10;;;;;;;11.16;71.65;101858.31;6167797;29;20191;-73
2021/09/14 03:41:35;;;;;;;1.10;1.10;;;;;;;11.09;71.99;101851.94;6150198;29;20210;-73
2021/09/14 03:44:39;;;;;;;4.10;1.20;;;;;;;11.12;71.46;101854.28;6150004;29;20207;-73
2021/09/14 03:47:48;;;;;;;2.92;2.10;;;;;;;11.09;69.23;101859.31;6149841;29;20234;-73
2021/09/14 03:50:52;;;;;;;2.38;1.20;;;;;;;11.10;71.23;101848.16;6149692;29;20299;-73
2021/09/14 03:53:57;;;;;;;1.10;1.00;;;;;;;11.09;72.24;101853.84;6149560;29;20210;-73
2021/09/14 03:57:02;;;;;;;1.13;1.13;;;;;;;11.06;70.87;101862.41;6149923;29;20202;-72
2021/09/14 04:00:07;;;;;;;1.23;1.20;;;;;;;11.12;73.67;101858.88;6165753;29;20187;-72
2021/09/14 04:03:24;;;;;;;2.25;1.35;;;;;;;11.04;72.56;101865.31;6166735;28;20247;-73
2021/09/14 04:06:52;;;;;;;1.38;1.27;;;;;;;11.08;71.02;101861.19;6148845;29;20212;-73
2021/09/14 04:09:57;;;;;;;1.10;1.10;;;;;;;11.03;72.52;101874.56;6149621;29;20203;-73
2021/09/14 04:13:02;;;;;;;1.30;1.30;;;;;;;11.01;73.30;101876.66;6149308;29;20203;-72
2021/09/14 04:16:06;;;;;;;1.55;1.20;;;;;;;11.03;73.19;101868.25;6148197;29;20251;-72
2021/09/14 04:19:14;;;;;;;2.22;1.20;;;;;;;11.06;72.58;101868.72;6148786;29;20203;-72
2021/09/14 04:22:18;;;;;;;4.35;1.27;;;;;;;11.06;73.49;101868.72;6166299;29;20195;-72
2021/09/14 04:25:22;;;;;;;1.48;1.30;;;;;;;11.04;73.32;101875.44;6148523;29;20274;-72
2021/09/14 04:28:41;;;;;;;1.45;1.45;;;;;;;10.92;74.10;101883.28;6165104;29;20220;-74
2021/09/14 04:31:46;;;;;;;1.88;1.40;;;;;;;10.93;74.75;101878.66;6149422;29;20270;-72
2021/09/14 04:34:51;;;;;;;5.35;1.50;;;;;;;11.03;75.45;101880.03;6148059;29;20234;-72
2021/09/14 04:37:56;;;;;;;5.07;1.70;;;;;;;11.06;74.99;101884.25;6147978;29;20234;-72
2021/09/14 04:41:01;;;;;;;1.80;1.30;;;;;;;10.89;74.75;101885.56;6148852;29;20270;-72
2021/09/14 04:44:05;;;;;;;2.97;1.30;;;;;;;10.94;75.39;101883.91;6147812;29;20210;-72
2021/09/14 04:47:10;;;;;;;2.25;1.98;;;;;;;10.91;76.16;101887.06;6148069;29;20214;-72
2021/09/14 04:50:18;;;;;;;10.45;1.70;;;;;;;10.83;76.33;101898.09;6164726;29;20447;-72
2021/09/14 04:53:22;;;;;;;2.83;1.65;;;;;;;10.87;77.26;101904.84;6148095;29;20203;-73
2021/09/14 04:56:28;;;;;;;6.97;1.63;;;;;;;10.80;78.02;101903.09;6147406;29;20253;-73
2021/09/14 04:59:32;;;;;;;4.22;1.45;;;;;;;10.65;79.03;101908.59;6147423;29;20275;-72
2021/09/14 05:02:37;;;;;;;1.60;1.50;;;;;;;10.74;78.48;101901.97;6155930;28;20335;-72
2021/09/14 05:05:43;;;;;;;1.63;1.50;;;;;;;10.83;78.98;101902.72;6171632;28;20552;-73
2021/09/14 05:08:49;;;;;;;1.75;1.60;;;;;;;10.82;77.53;101901.84;6172282;28;20234;-73
2021/09/14 05:11:54;;;;;;;1.33;1.33;;;;;;;10.92;77.53;101894.19;6171393;28;20203;-73
2021/09/14 05:14:58;;;;;;;1.90;1.80;;;;;;;10.95;74.52;101915.66;6171506;28;20286;-73
2021/09/14 05:18:38;;;;;;;2.45;1.58;;;;;;;10.85;73.36;101915.13;6116840;28;20210;-73
2021/09/14 05:21:46;;;;;;;2.78;1.30;;;;;;;10.94;74.96;101919.41;6171902;28;20204;-73
2021/09/14 05:24:50;;;;;;;3.03;1.55;;;;;;;10.94;72.92;101918.59;6189259;28;20354;-73
2021/09/14 05:27:54;;;;;;;5.05;1.67;;;;;;;10.88;72.02;101913.91;6191660;28;20482;-73
2021/09/14 05:30:59;;;;;;;6.00;1.63;;;;;;;11.03;73.30;101918.28;6194214;28;20265;-73
2021/09/14 05:34:03;;;;;;;1.40;1.33;;;;;;;11.09;74.35;101906.56;6175596;28;20209;-74
2021/09/14 05:37:09;;;;;;;2.92;1.63;;;;;;;10.97;73.35;101908.13;6175998;28;20533;-73
2021/09/14 05:40:14;;;;;;;1.75;1.55;;;;;;;11.01;71.45;101909.44;6194196;28;20194;-73
2021/09/14 05:43:19;;;;;;;3.03;1.60;;;;;;;11.06;71.06;101912.44;6175562;28;20209;-72
2021/09/14 05:46:25;;;;;;;1.60;1.50;;;;;;;11.08;70.74;101915.81;6176289;28;20234;-72
2021/09/14 05:49:32;;;;;;;1.35;1.35;;;;;;;11.00;69.89;101929.56;6176857;28;20210;-72
2021/09/14 05:52:39;;;;;;;3.50;1.70;;;;;;;11.07;71.35;101922.28;6193537;28;20191;-72
2021/09/14 05:55:45;;;;;;;1.48;1.38;;;;;;;11.15;69.11;101933.09;6176424;28;20233;-72
2021/09/14 05:58:52;;;;;;;5.28;1.67;;;;;;;11.13;70.29;101935.19;6175194;28;20202;-72
2021/09/14 06:01:56;;;;;;;1.98;1.23;;;;;;;11.14;69.89;101931.44;6174824;28;20202;-72
2021/09/14 06:05:01;;;;;;;7.18;1.73;;;;;;;11.25;69.56;101930.88;6174811;28;20202;-72
2021/09/14 06:08:11;;;;;;;2.97;1.30;;;;;;;11.36;67.75;101934.13;6176546;28;20240;-71
2021/09/14 06:11:20;;;;;;;1.50;1.40;;;;;;;11.42;67.92;101933.38;6175766;28;20274;-73
2021/09/14 06:14:26;;;;;;;3.80;1.77;;;;;;;11.38;67.55;101934.78;6175610;28;20203;-73
2021/09/14 06:17:32;;;;;;;6.35;1.65;;;;;;;11.46;64.31;101940.13;6174896;28;20230;-73
2021/09/14 06:20:36;;;;;;;3.60;1.50;;;;;;;11.52;63.54;101939.34;6193278;28;20187;-73
2021/09/14 06:23:43;;;;;;;2.20;1.67;;;;;;;11.64;65.44;101935.03;6175186;28;20238;-72
2021/09/14 06:26:50;;;;;;;5.03;1.50;;;;;;;11.69;65.25;101935.31;6191474;28;20274;-73
2021/09/14 06:29:55;;;;;;;5.63;1.40;;;;;;;11.77;64.56;101937.91;6175735;28;20269;-72
2021/09/14 06:32:59;;;;;;;5.60;1.60;;;;;;;11.54;61.35;101949.03;6174847;28;20214;-72
2021/09/14 06:36:03;;;;;;;1.55;1.45;;;;;;;11.53;62.52;101951.97;6192423;28;20221;-72
2021/09/14 06:39:13;;;;;;;1.65;1.58;;;;;;;11.62;63.04;101950.78;6174382;28;20202;-73
2021/09/14 06:42:18;;;;;;;2.95;1.63;;;;;;;11.67;62.19;101948.31;6175527;28;20270;-72
2021/09/14 06:45:30;;;;;;;5.18;1.55;;;;;;;11.71;61.34;101941.44;6174573;28;20245;-72
2021/09/14 06:48:42;;;;;;;5.00;1.60;;;;;;;11.86;61.51;101942.19;6175381;28;20314;-72
2021/09/14 06:51:46;;;;;;;1.45;1.45;;;;;;;11.91;59.95;101934.25;6192265;28;20194;-71
2021/09/14 06:54:52;;;;;;;1.70;1.60;;;;;;;11.84;60.94;101945.13;6192370;28;20194;-71
2021/09/14 06:57:58;;;;;;;3.83;1.42;;;;;;;11.95;60.72;101932.78;6192287;28;20309;-73
2021/09/14 07:01:05;;;;;;;2.22;1.55;;;;;;;12.04;60.42;101938.97;6191770;28;20187;-73
2021/09/14 07:04:11;;;;;;;1.77;1.48;;;;;;;11.83;59.13;101942.59;6191769;28;20244;-72
2021/09/14 07:07:15;;;;;;;8.05;1.60;;;;;;;11.94;59.69;101942.88;6191841;28;20259;-72
2021/09/14 07:10:20;;;;;;;1.67;1.63;;;;;;;12.04;61.33;101944.44;6190753;28;20386;-72
2021/09/14 07:13:25;;;;;;;2.28;1.63;;;;;;;11.92;58.98;101952.31;6192020;28;20234;-72
2021/09/14 07:16:29;;;;;;;2.42;1.52;;;;;;;11.83;58.54;101948.91;6191074;28;20219;-73
2021/09/14 07:19:33;;;;;;;2.95;1.63;;;;;;;11.77;59.00;101965.25;6190587;28;20552;-72
2021/09/14 07:22:37;;;;;;;1.65;1.55;;;;;;;11.88;59.04;101956.50;6191649;28;20251;-72
2021/09/14 07:25:43;;;;;;;2.63;1.63;;;;;;;11.99;58.89;101958.72;6190512;28;20526;-72
2021/09/14 07:28:47;;;;;;;2.55;1.70;;;;;;;11.80;58.97;101964.84;6191376;28;20191;-73
2021/09/14 07:31:53;;;;;;;2.53;1.58;;;;;;;11.99;59.63;101964.19;6191749;28;20250;-73
2021/09/14 07:34:57;;;;;;;1.52;1.42;;;;;;;12.11;60.36;101959.84;6190351;28;20191;-72
2021/09/14 07:38:02;;;;;;;1.45;1.30;;;;;;;11.82;58.16;101962.75;6191477;28;20249;-72
2021/09/14 07:41:08;;;;;;;2.78;1.73;;;;;;;11.74;59.38;101965.63;6191399;28;20242;-72
2021/09/14 07:44:13;;;;;;;1.23;1.23;;;;;;;11.80;58.60;101970.31;6190099;28;20471;-72
2021/09/14 07:47:17;;;;;;;7.25;1.33;;;;;;;11.96;59.75;101967.31;6190137;28;20250;-73
2021/09/14 07:50:22;;;;;;;3.88;1.35;;;;;;;11.94;59.33;101975.69;6189378;28;20187;-73
2021/09/14 07:53:26;;;;;;;3.08;1.52;;;;;;;12.02;60.32;101980.16;6190716;28;20193;-72
2021/09/14 07:56:32;;;;;;;2.08;1.45;;;;;;;12.05;58.78;101982.50;6190865;28;20234;-72
2021/09/14 07:59:36;;;;;;;1.25;1.25;;;;;;;12.17;58.18;101983.66;6189639;28;20195;-72
2021/09/14 08:02:41;;;;;;;4.22;1.58;;;;;;;12.21;58.73;101978.63;6189600;28;20230;-72
2021/09/14 08:05:45;;;;;;;3.33;1.67;;;;;;;12.19;58.92;101987.06;6189554;28;20418;-73
2021/09/14 08:08:49;;;;;;;2.88;1.70;;;;;;;12.33;59.60;101983.34;6190867;28;20229;-73
2021/09/14 08:11:55;;;;;;;1.70;1.48;;;;;;;12.33;59.51;101988.81;6190347;28;20262;-72
2021/09/14 08:14:59;;;;;;;4.72;1.70;;;;;;;12.32;58.38;101987.16;6190501;28;20218;-73
2021/09/14 08:18:03;;;;;;;2.40;1.40;;;;;;;12.35;60.14;101986.72;6189105;28;20249;-72
2021/09/14 08:21:08;;;;;;;1.75;1.60;;;;;;;12.38;59.10;101986.31;6189838;28;20202;-72
2021/09/14 08:24:13;;;;;;;2.47;1.48;;;;;;;12.33;57.96;101983.34;6190060;28;20194;-72
2021/09/14 08:27:38;;;;;;;3.08;1.50;;;;;;;12.32;58.44;101978.94;6189205;28;20552;-72
2021/09/14 08:30:51;;;;;;;1.20;1.20;;;;;;;12.36;57.54;101991.16;6189876;28;20221;-73
2021/09/14 08:34:11;;;;;;;1.67;1.38;;;;;;;12.43;56.68;101983.81;6188830;28;20195;-72
2021/09/14 08:37:37;;;;;;;2.33;1.25;;;;;;;12.31;56.23;101985.44;6190056;28;20242;-72
2021/09/14 08:41:01;;;;;;;1.92;1.58;;;;;;;12.24;55.76;101979.09;6189779;28;20187;-72
2021/09/14 08:44:23;;;;;;;1.92;1.20;;;;;;;12.48;56.71;101992.28;6189793;28;20183;-73
2021/09/14 08:47:48;;;;;;;1.40;1.30;;;;;;;12.58;57.10;101992.75;6189705;28;20199;-72
2021/09/14 08:51:12;;;;;;;1.38;1.35;;;;;;;12.70;60.19;101992.19;6189992;28;20198;-72
2021/09/14 08:54:26;;;;;;;2.13;1.60;;;;;;;12.64;57.31;102006.69;6188517;28;20226;-72
2021/09/14 08:57:30;;;;;;;1.88;1.10;;;;;;;12.67;58.70;101995.31;6189607;28;20242;-72
2021/09/14 09:00:37;;;;;;;1.70;1.33;;;;;;;12.70;57.15;102008.63;6189615;28;20190;-72
2021/09/14 09:03:42;;;;;;;5.35;1.10;;;;;;;12.89;55.73;101995.00;6188586;28;20249;-72
2021/09/14 09:06:46;;;;;;;7.15;1.17;;;;;;;12.92;55.26;101999.22;6188776;28;20187;-72
2021/09/14 09:09:53;;;;;;;1.50;1.40;;;;;;;12.85;58.61;102006.56;6188262;28;20269;-72
2021/09/14 09:13:00;;;;;;;3.10;1.23;;;;;;;12.82;57.40;101998.75;6189517;28;20194;-72
2021/09/14 09:16:20;;;;;;;0.98;0.98;;;;;;;12.91;54.94;101987.44;6189229;28;20234;-73
2021/09/14 09:19:26;;;;;;;3.00;1.20;;;;;;;12.94;58.15;101981.53;6189121;28;20222;-72
2021/09/14 09:22:30;;;;;;;1.42;1.40;;;;;;;13.00;56.51;101985.34;6189347;28;20222;-72
2021/09/14 09:25:35;;;;;;;1.60;1.20;;;;;;;13.04;55.60;101990.25;6189418;28;20187;-72
2021/09/14 09:28:39;;;;;;;3.13;1.08;;;;;;;13.12;58.04;101975.53;6188403;28;20266;-75
2021/09/14 09:31:46;;;;;;;2.85;1.08;;;;;;;13.06;54.61;101984.53;6188080;28;20503;-72
2021/09/14 09:34:57;;;;;;;2.00;1.10;;;;;;;13.08;55.22;101974.25;6189033;28;20254;-72
2021/09/14 09:38:02;;;;;;;5.28;1.10;;;;;;;13.14;55.68;101978.91;6188418;28;20211;-72
2021/09/14 09:41:06;;;;;;;1.02;1.02;;;;;;;13.17;52.75;101978.50;6189172;28;20193;-73
2021/09/14 09:44:15;;;;;;;1.15;1.15;;;;;;;13.20;55.39;101975.34;6188426;28;20187;-73
2021/09/14 09:47:21;;;;;;;2.28;1.40;;;;;;;13.19;56.48;101992.84;6188051;28;20250;-72
2021/09/14 09:50:25;;;;;;;2.53;1.40;;;;;;;13.23;53.93;101979.56;6188843;28;20190;-72
2021/09/14 09:53:29;;;;;;;1.20;1.20;;;;;;;13.36;53.60;101976.84;6187861;28;20381;-73
2021/09/14 09:56:34;;;;;;;1.13;1.13;;;;;;;13.32;52.02;101972.84;6187844;28;20226;-72
2021/09/14 09:59:38;;;;;;;1.13;1.00;;;;;;;13.46;52.07;101975.41;6188682;28;20281;-72
2021/09/14 10:02:52;;;;;;;2.60;1.10;;;;;;;13.50;52.29;101976.69;6188286;28;20293;-72
2021/09/14 10:06:08;;;;;;;3.05;1.00;;;;;;;13.45;54.18;101984.69;6188232;28;20187;-73
2021/09/14 10:09:13;;;;;;;1.30;1.17;;;;;;;13.54;54.11;101977.09;6188420;28;20198;-73
2021/09/14 10:12:25;;;;;;;1.13;1.10;;;;;;;13.67;50.95;101983.44;6188023;28;20483;-72
2021/09/14 10:15:38;;;;;;;2.45;1.15;;;;;;;13.70;50.99;101972.06;6192412;28;20210;-72
2021/09/14 10:18:44;;;;;;;1.10;1.10;;;;;;;13.63;51.47;101979.44;6191963;28;20423;-72
2021/09/14 10:22:02;;;;;;;1.20;1.20;;;;;;;13.70;49.70;101972.06;6193327;28;20194;-73
2021/09/14 10:25:08;;;;;;;1.20;1.20;;;;;;;13.80;50.15;101972.47;6193234;28;20266;-73
2021/09/14 10:28:15;;;;;;;1.30;1.20;;;;;;;13.98;50.71;101973.72;6193225;28;20270;-73
2021/09/14 10:31:22;;;;;;;2.25;1.02;;;;;;;13.95;53.10;101968.66;6192894;28;20219;-73
2021/09/14 10:34:28;;;;;;;1.10;1.10;;;;;;;13.97;52.59;101977.56;6192905;28;20187;-72
2021/09/14 10:37:34;;;;;;;1.30;1.10;;;;;;;14.03;51.72;101979.44;6191637;28;20510;-72
2021/09/14 10:40:40;;;;;;;1.40;1.25;;;;;;;14.05;53.21;101980.06;6191455;28;20242;-72
2021/09/14 10:43:55;;;;;;;1.10;1.10;;;;;;;14.16;51.64;101976.69;6191467;28;20416;-73
2021/09/14 10:47:09;;;;;;;1.50;1.20;;;;;;;14.17;49.88;101994.84;6192548;28;20234;-72
2021/09/14 10:50:27;;;;;;;0.95;0.95;;;;;;;14.22;50.48;101986.81;6193140;28;20227;-72
2021/09/14 10:53:32;;;;;;;1.48;1.33;;;;;;;14.28;51.24;101978.56;6192069;28;20187;-72
2021/09/14 10:56:48;;;;;;;1.83;1.00;;;;;;;14.30;51.71;101989.34;6192189;28;20261;-71
2021/09/14 10:59:52;;;;;;;2.47;1.10;;;;;;;14.38;51.77;101987.22;6191994;28;20282;-72
2021/09/14 11:02:57;;;;;;;1.20;1.20;;;;;;;14.47;50.92;101990.59;6191562;28;20227;-72
2021/09/14 11:06:05;;;;;;;4.70;1.30;;;;;;;14.54;49.57;101996.91;6191008;28;20435;-72
2021/09/14 11:09:10;;;;;;;1.17;1.13;;;;;;;14.54;49.04;102002.41;6191214;28;20191;-72
2021/09/14 11:12:21;;;;;;;1.95;1.30;;;;;;;14.49;50.16;101999.47;6191801;28;20191;-72
2021/09/14 11:15:26;;;;;;;1.00;1.00;;;;;;;14.62;46.93;101993.94;6190690;28;20453;-72
2021/09/14 11:18:31;;;;;;;3.78;1.10;;;;;;;14.71;47.88;101989.91;6190729;28;20217;-72
2021/09/14 11:21:44;;;;;;;1.13;1.10;;;;;;;14.75;47.96;101993.91;6191933;28;20187;-72
2021/09/14 11:24:51;;;;;;;3.05;1.30;;;;;;;14.78;46.08;101998.97;6190572;28;20479;-72
2021/09/14 11:27:59;;;;;;;1.45;1.35;;;;;;;14.77;46.97;101996.41;6191927;28;20266;-72
2021/09/14 11:31:05;;;;;;;1.40;1.40;;;;;;;14.89;47.17;101992.78;6191756;28;20245;-72
2021/09/14 11:34:09;;;;;;;1.55;1.10;;;;;;;14.99;47.98;102001.44;6190546;28;20250;-72
2021/09/14 11:37:25;;;;;;;1.50;1.27;;;;;;;14.92;49.25;101986.84;6191050;28;20230;-72
2021/09/14 11:40:32;;;;;;;3.50;1.20;;;;;;;14.94;46.18;101990.25;6189802;28;20238;-72
2021/09/14 11:43:41;;;;;;;2.05;1.25;;;;;;;14.98;47.00;101998.88;6191106;28;20194;-72
2021/09/14 11:46:48;;;;;;;1.17;1.17;;;;;;;15.11;46.97;101992.47;6189962;28;20226;-72
2021/09/14 11:49:53;;;;;;;1.33;1.08;;;;;;;15.19;47.28;101983.97;6190399;28;20254;-72
2021/09/14 11:53:06;;;;;;;1.35;1.15;;;;;;;15.18;45.43;101993.28;6191373;28;20190;-72
2021/09/14 11:56:12;;;;;;;1.10;1.10;;;;;;;15.18;45.95;101994.13;6190888;28;20255;-71
2021/09/14 11:59:17;;;;;;;1.85;1.38;;;;;;;15.18;46.53;101993.28;6190504;28;20218;-71
2021/09/14 12:02:26;;;;;;;3.97;1.42;;;;;;;15.10;49.52;101996.31;6189984;28;20239;-71
2021/09/14 12:05:31;;;;;;;1.20;1.20;;;;;;;15.20;47.84;102002.16;6190608;28;20258;-71
2021/09/14 12:08:40;;;;;;;1.83;1.10;;;;;;;15.27;49.58;101991.97;6190576;28;20187;-71
2021/09/14 12:11:46;;;;;;;1.30;1.30;;;;;;;15.26;48.11;101995.78;6190215;28;20203;-71
2021/09/14 12:14:56;;;;;;;1.88;1.27;;;;;;;15.38;46.96;101994.03;6189377;28;20195;-72
2021/09/14 12:18:05;;;;;;;1.10;1.10;;;;;;;15.43;46.61;101996.97;6189405;28;20278;-72
2021/09/14 12:21:10;;;;;;;1.70;1.30;;;;;;;15.51;46.46;101996.75;6189607;28;20211;-73
2021/09/14 12:24:17;;;;;;;2.03;1.30;;;;;;;15.47;46.36;102004.56;6190642;28;20187;-72
2021/09/14 12:27:21;;;;;;;1.30;1.30;;;;;;;15.43;47.46;101996.97;6190123;28;20187;-72
2021/09/14 12:30:25;;;;;;;1.67;1.40;;;;;;;15.38;49.13;101996.78;6189890;28;20191;-72
2021/09/14 12:33:36;;;;;;;1.42;1.30;;;;;;;15.47;45.25;101996.31;6189165;28;20202;-72
2021/09/14 12:36:41;;;;;;;1.20;1.20;;;;;;;15.49;44.80;101991.44;6188569;28;20254;-71
2021/09/14 12:39:47;;;;;;;1.45;1.20;;;;;;;15.56;45.11;101999.66;6188925;28;20577;-71
2021/09/14 12:42:51;;;;;;;1.10;1.10;;;;;;;15.49;45.23;101985.94;6188782;28;20187;-71
2021/09/14 12:45:56;;;;;;;2.42;1.45;;;;;;;15.57;45.16;101982.06;6189915;28;20187;-72
2021/09/14 12:49:01;;;;;;;2.85;1.30;;;;;;;15.50;45.77;101986.78;6188730;28;20555;-72
2021/09/14 12:52:06;;;;;;;1.17;1.17;;;;;;;15.55;47.18;101995.22;6189781;28;20220;-71
2021/09/14 12:55:12;;;;;;;1.63;1.33;;;;;;;15.60;45.83;101981.63;6188641;28;20211;-71
2021/09/14 12:58:17;;;;;;;1.20;1.20;;;;;;;15.59;47.28;101985.44;6189068;28;20187;-72
2021/09/14 13:01:21;;;;;;;1.27;1.27;;;;;;;15.55;48.75;101989.72;6189472;28;20312;-73
2021/09/14 13:04:25;;;;;;;1.38;1.08;;;;;;;15.67;47.93;101982.41;6189530;28;20581;-73
2021/09/14 13:07:29;;;;;;;2.42;1.38;;;;;;;15.59;47.46;101974.44;6189416;28;20254;-72
2021/09/14 13:10:35;;;;;;;3.33;1.35;;;;;;;15.68;46.93;101978.63;6189481;28;20294;-73
2021/09/14 13:17:01;;;;;;;3.13;1.20;;;;;;;15.55;46.81;101989.72;6189571;28;20254;-73
2021/09/14 13:20:08;;;;;;;1.23;1.20;;;;;;;15.68;45.64;101978.63;6189432;28;20222;-73
2021/09/14 13:23:12;;;;;;;2.15;1.25;;;;;;;15.69;46.76;101973.97;6189700;28;20248;-73
2021/09/14 13:26:19;;;;;;;1.30;1.20;;;;;;;15.71;49.29;101967.16;6189073;28;20191;-73
2021/09/14 13:29:24;;;;;;;3.60;1.60;;;;;;;15.72;46.23;101968.00;6189102;28;20186;-72
2021/09/14 13:32:28;;;;;;;5.13;1.38;;;;;;;15.79;48.67;101958.66;6188219;28;20270;-73
2021/09/14 13:35:34;;;;;;;2.45;1.27;;;;;;;15.78;47.37;101976.22;6189239;28;20218;-71
2021/09/14 13:38:38;;;;;;;1.38;1.27;;;;;;;15.83;45.44;101964.53;6189686;28;20194;-72
2021/09/14 13:41:49;;;;;;;1.73;1.73;;;;;;;15.87;46.68;101961.09;6188915;28;20215;-72
2021/09/14 13:48:21;;;;;;;1.40;1.38;;;;;;;15.95;46.40;101973.72;6191170;28;20187;-72
2021/09/14 13:51:27;;;;;;;5.05;1.50;;;;;;;15.98;48.05;101968.63;6193510;28;20198;-72
2021/09/14 13:54:31;;;;;;;1.60;1.50;;;;;;;16.01;48.05;101962.66;6193445;28;20250;-72
2021/09/14 13:57:36;;;;;;;1.10;1.10;;;;;;;16.04;49.40;101966.88;6193907;28;20187;-72
2021/09/14 14:00:41;;;;;;;1.58;1.13;;;;;;;15.94;48.95;101967.41;6193168;28;20242;-72
2021/09/14 14:03:46;;;;;;;1.52;1.38;;;;;;;16.00;48.76;101971.97;6192499;28;20232;-72
2021/09/14 14:06:51;;;;;;;1.10;1.10;;;;;;;16.16;48.41;101965.06;6192755;28;20254;-72
2021/09/14 14:09:56;;;;;;;1.85;1.40;;;;;;;16.28;48.78;101958.59;6193308;28;20193;-73
2021/09/14 14:13:01;;;;;;;2.42;1.17;;;;;;;16.11;52.80;101963.00;6193143;28;20195;-72
2021/09/14 14:16:06;;;;;;;1.10;1.10;;;;;;;15.98;50.96;101957.63;6191940;28;20384;-72
2021/09/14 14:19:11;;;;;;;1.33;1.20;;;;;;;16.02;52.71;101963.53;6191811;28;20187;-72
2021/09/14 14:22:15;;;;;;;2.55;1.45;;;;;;;16.08;51.75;101957.09;6192404;28;20215;-73
2021/09/14 14:25:19;;;;;;;5.95;1.40;;;;;;;16.01;52.32;101957.16;6191784;28;20538;-73
2021/09/14 14:28:25;;;;;;;1.63;1.20;;;;;;;16.05;48.71;101952.88;6191708;28;20218;-72
2021/09/14 14:31:29;;;;;;;2.00;1.30;;;;;;;16.05;49.71;101952.06;6192648;28;20230;-73
2021/09/14 14:34:33;;;;;;;2.30;1.40;;;;;;;15.89;51.97;101953.47;6192996;28;20306;-73
2021/09/14 14:37:38;;;;;;;1.20;1.20;;;;;;;15.75;52.92;101970.31;6192573;28;20192;-73
2021/09/14 14:40:44;;;;;;;1.35;1.20;;;;;;;15.78;50.89;101962.44;6191487;28;20456;-73
2021/09/14 14:43:52;;;;;;;1.40;1.30;;;;;;;15.64;53.09;101956.19;6191419;28;20388;-73
2021/09/14 14:46:56;;;;;;;2.30;1.48;;;;;;;15.80;53.11;101959.47;6192312;28;20330;-73
2021/09/14 14:50:00;;;;;;;1.10;1.10;;;;;;;15.90;49.65;101963.41;6192251;28;20227;-72
2021/09/14 14:53:06;;;;;;;1.40;1.40;;;;;;;15.76;52.24;101956.34;6192453;28;20202;-73
2021/09/14 14:56:10;;;;;;;1.48;1.38;;;;;;;15.88;50.99;101957.28;6192347;28;20226;-73
2021/09/14 14:59:16;;;;;;;1.70;1.23;;;;;;;15.88;50.07;101953.69;6191746;28;20197;-73
2021/09/14 15:02:20;;;;;;;3.78;1.30;;;;;;;15.82;52.30;101960.91;6191750;28;20253;-73
2021/09/14 15:05:27;;;;;;;1.17;1.17;;;;;;;15.78;54.74;101956.94;6190764;28;20187;-72
2021/09/14 15:08:32;;;;;;;1.38;1.27;;;;;;;15.70;55.19;101959.97;6192042;28;20194;-72
2021/09/14 15:11:36;;;;;;;1.58;1.35;;;;;;;15.68;51.27;101964.88;6192124;28;20199;-73
2021/09/14 15:14:41;;;;;;;2.22;1.40;;;;;;;15.67;56.62;101971.41;6192196;28;20191;-73
2021/09/14 15:17:45;;;;;;;1.40;1.30;;;;;;;15.70;55.90;101970.97;6191043;28;20219;-72
2021/09/14 15:20:50;;;;;;;2.30;1.27;;;;;;;15.46;56.87;101964.38;6191447;28;20187;-73
2021/09/14 15:23:54;;;;;;;4.22;1.48;;;;;;;15.53;54.43;101967.09;6191801;28;20265;-72